Wolfe, West Virginia
Current Conditions -  °F | °C
As of 6:52 PM on Saturday 25 Oct 2014 (Local Time) from KBLF Reporting Station
Clear Clear  
Wind Chill: 59°   Ceiling: Unl
Heat Index: 59°   Visibility: 10mi
Dew Point: 43°   Wind: 10mph
Humidity: 55%   Direction: 270°W
Pressure: 29.98"   Gusts: NA
Location:  37.31°N, 81.33°W
Report Text: KBLF 252252Z AUTO 27009KT 10SM CLR 15/06 A2998 RMK AO2 SLP144 T01500061
Loading
Personal Weather Stations






























Interactive Weather Map
Tropical Storm Tracking
New forecast layout! Learn more

10-Day Weather Forecast

Advertisements
Track Severe Weather on mobile